sensor_id;sensor_type;location;lat;lon;timestamp;P1;durP1;ratioP1;P2;durP2;ratioP2
60016;SDS011;45869;52.698;6.210;2022-08-19T00:00:44;5.38;;;4.30;;
60016;SDS011;45869;52.698;6.210;2022-08-19T00:03:10;6.82;;;4.68;;
60016;SDS011;45869;52.698;6.210;2022-08-19T00:05:36;6.45;;;4.90;;
60016;SDS011;45869;52.698;6.210;2022-08-19T00:10:47;6.18;;;4.53;;
60016;SDS011;45869;52.698;6.210;2022-08-19T00:13:13;6.40;;;4.63;;
60016;SDS011;45869;52.698;6.210;2022-08-19T00:15:40;7.10;;;4.82;;
60016;SDS011;45869;52.698;6.210;2022-08-19T00:18:09;7.97;;;5.00;;
60016;SDS011;45869;52.698;6.210;2022-08-19T00:20:35;6.50;;;4.50;;
60016;SDS011;45869;52.698;6.210;2022-08-19T00:23:05;6.43;;;4.68;;
60016;SDS011;45869;52.698;6.210;2022-08-19T00:25:34;7.72;;;5.13;;
60016;SDS011;45869;52.698;6.210;2022-08-19T00:28:01;5.53;;;4.55;;
60016;SDS011;45869;52.698;6.210;2022-08-19T00:30:27;5.90;;;5.10;;
60016;SDS011;45869;52.698;6.210;2022-08-19T00:32:53;7.30;;;5.38;;
60016;SDS011;45869;52.698;6.210;2022-08-19T00:35:20;8.05;;;6.28;;
60016;SDS011;45869;52.698;6.210;2022-08-19T00:37:47;7.10;;;5.70;;
60016;SDS011;45869;52.698;6.210;2022-08-19T00:40:13;7.60;;;5.72;;
60016;SDS011;45869;52.698;6.210;2022-08-19T00:42:42;8.73;;;6.50;;
60016;SDS011;45869;52.698;6.210;2022-08-19T00:45:16;8.35;;;6.78;;
60016;SDS011;45869;52.698;6.210;2022-08-19T00:47:43;9.10;;;6.25;;
60016;SDS011;45869;52.698;6.210;2022-08-19T00:50:10;7.68;;;6.15;;
60016;SDS011;45869;52.698;6.210;2022-08-19T00:52:38;8.40;;;6.32;;
60016;SDS011;45869;52.698;6.210;2022-08-19T00:55:13;8.98;;;6.13;;
60016;SDS011;45869;52.698;6.210;2022-08-19T00:57:40;7.13;;;6.18;;
60016;SDS011;45869;52.698;6.210;2022-08-19T01:00:09;7.82;;;6.43;;
60016;SDS011;45869;52.698;6.210;2022-08-19T01:02:37;8.15;;;6.60;;
60016;SDS011;45869;52.698;6.210;2022-08-19T01:05:04;8.63;;;6.03;;
60016;SDS011;45869;52.698;6.210;2022-08-19T01:07:34;7.93;;;6.13;;
60016;SDS011;45869;52.698;6.210;2022-08-19T01:10:04;7.18;;;5.88;;
60016;SDS011;45869;52.698;6.210;2022-08-19T01:12:31;6.78;;;6.05;;
60016;SDS011;45869;52.698;6.210;2022-08-19T01:14:57;8.30;;;6.10;;
60016;SDS011;45869;52.698;6.210;2022-08-19T01:17:24;8.43;;;5.78;;
60016;SDS011;45869;52.698;6.210;2022-08-19T01:19:50;7.68;;;6.13;;
60016;SDS011;45869;52.698;6.210;2022-08-19T01:22:25;10.23;;;6.60;;
60016;SDS011;45869;52.698;6.210;2022-08-19T01:24:52;7.28;;;6.30;;
60016;SDS011;45869;52.698;6.210;2022-08-19T01:27:18;8.52;;;5.95;;
60016;SDS011;45869;52.698;6.210;2022-08-19T01:29:44;8.57;;;5.97;;
60016;SDS011;45869;52.698;6.210;2022-08-19T01:32:11;7.05;;;5.82;;
60016;SDS011;45869;52.698;6.210;2022-08-19T01:34:39;7.97;;;5.95;;
60016;SDS011;45869;52.698;6.210;2022-08-19T01:37:06;8.98;;;6.13;;
60016;SDS011;45869;52.698;6.210;2022-08-19T01:39:33;7.95;;;6.60;;
60016;SDS011;45869;52.698;6.210;2022-08-19T01:41:59;8.00;;;6.50;;
60016;SDS011;45869;52.698;6.210;2022-08-19T01:44:38;7.63;;;6.20;;
60016;SDS011;45869;52.698;6.210;2022-08-19T01:47:07;8.85;;;6.22;;
60016;SDS011;45869;52.698;6.210;2022-08-19T01:49:34;8.38;;;6.22;;
60016;SDS011;45869;52.698;6.210;2022-08-19T01:52:02;8.93;;;6.50;;
60016;SDS011;45869;52.698;6.210;2022-08-19T01:54:29;9.15;;;6.25;;
60016;SDS011;45869;52.698;6.210;2022-08-19T01:56:58;10.68;;;6.57;;
60016;SDS011;45869;52.698;6.210;2022-08-19T01:59:24;8.23;;;6.57;;
60016;SDS011;45869;52.698;6.210;2022-08-19T02:01:50;7.82;;;6.93;;
60016;SDS011;45869;52.698;6.210;2022-08-19T02:04:16;8.23;;;6.95;;
60016;SDS011;45869;52.698;6.210;2022-08-19T02:06:45;9.40;;;6.70;;
60016;SDS011;45869;52.698;6.210;2022-08-19T02:09:13;7.28;;;6.45;;
60016;SDS011;45869;52.698;6.210;2022-08-19T02:11:39;9.90;;;7.00;;
60016;SDS011;45869;52.698;6.210;2022-08-19T02:14:07;8.45;;;6.75;;
60016;SDS011;45869;52.698;6.210;2022-08-19T02:16:33;8.77;;;7.43;;
60016;SDS011;45869;52.698;6.210;2022-08-19T02:18:59;12.60;;;6.85;;
60016;SDS011;45869;52.698;6.210;2022-08-19T02:21:25;7.45;;;6.35;;
60016;SDS011;45869;52.698;6.210;2022-08-19T02:23:51;8.20;;;6.38;;
60016;SDS011;45869;52.698;6.210;2022-08-19T02:26:18;10.13;;;7.60;;
60016;SDS011;45869;52.698;6.210;2022-08-19T02:28:47;9.15;;;7.30;;
60016;SDS011;45869;52.698;6.210;2022-08-19T02:31:14;8.73;;;7.55;;
60016;SDS011;45869;52.698;6.210;2022-08-19T02:33:53;8.77;;;7.03;;
60016;SDS011;45869;52.698;6.210;2022-08-19T02:39:26;9.88;;;7.35;;
60016;SDS011;45869;52.698;6.210;2022-08-19T02:44:27;7.55;;;5.90;;
60016;SDS011;45869;52.698;6.210;2022-08-19T02:50:21;7.82;;;7.00;;
60016;SDS011;45869;52.698;6.210;2022-08-19T02:52:47;8.45;;;6.85;;
60016;SDS011;45869;52.698;6.210;2022-08-19T02:55:19;8.70;;;6.95;;
60016;SDS011;45869;52.698;6.210;2022-08-19T02:57:48;9.75;;;7.35;;
60016;SDS011;45869;52.698;6.210;2022-08-19T03:00:15;10.85;;;7.80;;
60016;SDS011;45869;52.698;6.210;2022-08-19T03:02:41;9.52;;;7.47;;
60016;SDS011;45869;52.698;6.210;2022-08-19T03:05:08;11.93;;;7.72;;
60016;SDS011;45869;52.698;6.210;2022-08-19T03:07:34;10.15;;;7.80;;
60016;SDS011;45869;52.698;6.210;2022-08-19T03:10:00;9.20;;;7.22;;
60016;SDS011;45869;52.698;6.210;2022-08-19T03:12:27;9.20;;;7.47;;
60016;SDS011;45869;52.698;6.210;2022-08-19T03:14:52;8.10;;;7.10;;
60016;SDS011;45869;52.698;6.210;2022-08-19T03:17:19;9.27;;;7.63;;
60016;SDS011;45869;52.698;6.210;2022-08-19T03:19:45;9.27;;;7.93;;
60016;SDS011;45869;52.698;6.210;2022-08-19T03:22:11;9.48;;;7.75;;
60016;SDS011;45869;52.698;6.210;2022-08-19T03:24:37;9.15;;;7.25;;
60016;SDS011;45869;52.698;6.210;2022-08-19T03:27:03;7.55;;;6.45;;
60016;SDS011;45869;52.698;6.210;2022-08-19T03:29:30;9.07;;;7.07;;
60016;SDS011;45869;52.698;6.210;2022-08-19T03:31:57;10.10;;;8.13;;
60016;SDS011;45869;52.698;6.210;2022-08-19T03:34:26;11.15;;;8.25;;
60016;SDS011;45869;52.698;6.210;2022-08-19T03:36:53;9.02;;;8.13;;
60016;SDS011;45869;52.698;6.210;2022-08-19T03:39:19;11.05;;;8.80;;
60016;SDS011;45869;52.698;6.210;2022-08-19T03:41:46;9.57;;;7.68;;
60016;SDS011;45869;52.698;6.210;2022-08-19T03:44:13;11.52;;;9.27;;
60016;SDS011;45869;52.698;6.210;2022-08-19T03:46:40;9.90;;;8.57;;
60016;SDS011;45869;52.698;6.210;2022-08-19T03:49:05;11.93;;;9.15;;
60016;SDS011;45869;52.698;6.210;2022-08-19T03:51:36;12.90;;;9.43;;
60016;SDS011;45869;52.698;6.210;2022-08-19T03:54:07;10.75;;;9.60;;
60016;SDS011;45869;52.698;6.210;2022-08-19T03:56:37;9.63;;;8.38;;
60016;SDS011;45869;52.698;6.210;2022-08-19T03:59:03;10.50;;;8.57;;
60016;SDS011;45869;52.698;6.210;2022-08-19T04:01:30;10.25;;;8.77;;
60016;SDS011;45869;52.698;6.210;2022-08-19T04:03:59;9.82;;;8.75;;
60016;SDS011;45869;52.698;6.210;2022-08-19T04:06:29;10.02;;;8.65;;
60016;SDS011;45869;52.698;6.210;2022-08-19T04:08:56;10.02;;;8.90;;
60016;SDS011;45869;52.698;6.210;2022-08-19T04:11:57;10.90;;;8.77;;
60016;SDS011;45869;52.698;6.210;2022-08-19T04:14:19;12.35;;;9.65;;
60016;SDS011;45869;52.698;6.210;2022-08-19T04:16:46;11.98;;;9.18;;
60016;SDS011;45869;52.698;6.210;2022-08-19T04:19:13;10.52;;;8.98;;
60016;SDS011;45869;52.698;6.210;2022-08-19T04:21:39;11.95;;;8.85;;
60016;SDS011;45869;52.698;6.210;2022-08-19T04:24:05;11.02;;;8.52;;
60016;SDS011;45869;52.698;6.210;2022-08-19T04:26:32;10.68;;;9.23;;
60016;SDS011;45869;52.698;6.210;2022-08-19T04:29:04;10.35;;;8.73;;
60016;SDS011;45869;52.698;6.210;2022-08-19T04:31:31;10.88;;;8.75;;
60016;SDS011;45869;52.698;6.210;2022-08-19T04:34:00;9.65;;;8.50;;
60016;SDS011;45869;52.698;6.210;2022-08-19T04:36:29;11.02;;;8.98;;
60016;SDS011;45869;52.698;6.210;2022-08-19T04:38:56;12.27;;;9.05;;
60016;SDS011;45869;52.698;6.210;2022-08-19T04:41:22;12.32;;;8.90;;
60016;SDS011;45869;52.698;6.210;2022-08-19T04:44:07;10.70;;;8.00;;
60016;SDS011;45869;52.698;6.210;2022-08-19T04:46:39;9.60;;;8.10;;
60016;SDS011;45869;52.698;6.210;2022-08-19T04:49:06;10.40;;;8.65;;
60016;SDS011;45869;52.698;6.210;2022-08-19T04:51:33;11.57;;;9.13;;
60016;SDS011;45869;52.698;6.210;2022-08-19T04:53:59;10.77;;;9.35;;
60016;SDS011;45869;52.698;6.210;2022-08-19T04:56:26;11.68;;;9.20;;
60016;SDS011;45869;52.698;6.210;2022-08-19T04:58:53;11.25;;;9.60;;
60016;SDS011;45869;52.698;6.210;2022-08-19T05:01:21;13.23;;;11.02;;
60016;SDS011;45869;52.698;6.210;2022-08-19T05:03:48;13.77;;;10.05;;
60016;SDS011;45869;52.698;6.210;2022-08-19T05:06:14;12.00;;;8.93;;
60016;SDS011;45869;52.698;6.210;2022-08-19T05:08:41;11.77;;;9.23;;
60016;SDS011;45869;52.698;6.210;2022-08-19T05:11:13;11.68;;;9.07;;
60016;SDS011;45869;52.698;6.210;2022-08-19T05:13:39;11.65;;;9.20;;
60016;SDS011;45869;52.698;6.210;2022-08-19T05:16:05;10.60;;;9.45;;
60016;SDS011;45869;52.698;6.210;2022-08-19T05:18:31;12.07;;;9.43;;
60016;SDS011;45869;52.698;6.210;2022-08-19T05:21:17;12.52;;;9.93;;
60016;SDS011;45869;52.698;6.210;2022-08-19T05:24:02;12.30;;;9.98;;
60016;SDS011;45869;52.698;6.210;2022-08-19T05:26:33;15.45;;;11.75;;
60016;SDS011;45869;52.698;6.210;2022-08-19T05:28:59;12.20;;;9.68;;
60016;SDS011;45869;52.698;6.210;2022-08-19T05:31:25;13.65;;;9.40;;
60016;SDS011;45869;52.698;6.210;2022-08-19T05:33:51;14.13;;;10.82;;
60016;SDS011;45869;52.698;6.210;2022-08-19T05:36:17;11.15;;;9.95;;
60016;SDS011;45869;52.698;6.210;2022-08-19T05:38:45;14.13;;;11.18;;
60016;SDS011;45869;52.698;6.210;2022-08-19T05:41:13;14.13;;;9.98;;
60016;SDS011;45869;52.698;6.210;2022-08-19T05:43:39;13.82;;;11.32;;
60016;SDS011;45869;52.698;6.210;2022-08-19T05:46:05;13.25;;;11.57;;
60016;SDS011;45869;52.698;6.210;2022-08-19T05:48:32;14.18;;;11.55;;
60016;SDS011;45869;52.698;6.210;2022-08-19T05:51:02;16.23;;;11.63;;
60016;SDS011;45869;52.698;6.210;2022-08-19T05:53:28;15.93;;;12.60;;
60016;SDS011;45869;52.698;6.210;2022-08-19T05:55:54;21.45;;;15.60;;
60016;SDS011;45869;52.698;6.210;2022-08-19T05:58:20;19.42;;;15.48;;
60016;SDS011;45869;52.698;6.210;2022-08-19T06:00:46;20.75;;;14.68;;
60016;SDS011;45869;52.698;6.210;2022-08-19T06:03:12;17.08;;;13.88;;
60016;SDS011;45869;52.698;6.210;2022-08-19T06:05:38;18.33;;;14.23;;
60016;SDS011;45869;52.698;6.210;2022-08-19T06:08:04;15.93;;;13.23;;
60016;SDS011;45869;52.698;6.210;2022-08-19T06:10:32;20.88;;;16.23;;
60016;SDS011;45869;52.698;6.210;2022-08-19T06:12:58;18.63;;;15.38;;
60016;SDS011;45869;52.698;6.210;2022-08-19T06:15:24;18.95;;;15.13;;
60016;SDS011;45869;52.698;6.210;2022-08-19T06:17:52;20.58;;;15.43;;
60016;SDS011;45869;52.698;6.210;2022-08-19T06:20:18;21.17;;;16.33;;
60016;SDS011;45869;52.698;6.210;2022-08-19T06:22:49;19.85;;;15.52;;
60016;SDS011;45869;52.698;6.210;2022-08-19T06:25:16;19.88;;;15.25;;
60016;SDS011;45869;52.698;6.210;2022-08-19T06:27:42;21.75;;;15.77;;
60016;SDS011;45869;52.698;6.210;2022-08-19T06:30:09;21.90;;;16.85;;
60016;SDS011;45869;52.698;6.210;2022-08-19T06:32:36;22.23;;;15.93;;
60016;SDS011;45869;52.698;6.210;2022-08-19T06:35:02;23.00;;;17.33;;
60016;SDS011;45869;52.698;6.210;2022-08-19T06:40:07;21.38;;;16.63;;
60016;SDS011;45869;52.698;6.210;2022-08-19T06:42:34;21.02;;;16.55;;
60016;SDS011;45869;52.698;6.210;2022-08-19T06:45:00;23.13;;;17.30;;
60016;SDS011;45869;52.698;6.210;2022-08-19T06:47:30;26.85;;;17.88;;
60016;SDS011;45869;52.698;6.210;2022-08-19T06:49:57;21.33;;;16.48;;
60016;SDS011;45869;52.698;6.210;2022-08-19T06:52:29;20.98;;;15.88;;
60016;SDS011;45869;52.698;6.210;2022-08-19T06:54:56;21.17;;;16.77;;
60016;SDS011;45869;52.698;6.210;2022-08-19T06:57:23;22.48;;;16.67;;
60016;SDS011;45869;52.698;6.210;2022-08-19T06:59:49;20.90;;;15.80;;
60016;SDS011;45869;52.698;6.210;2022-08-19T07:02:15;19.25;;;15.70;;
60016;SDS011;45869;52.698;6.210;2022-08-19T07:04:41;18.60;;;14.48;;
60016;SDS011;45869;52.698;6.210;2022-08-19T07:07:09;21.38;;;15.02;;
60016;SDS011;45869;52.698;6.210;2022-08-19T07:09:37;17.58;;;14.57;;
60016;SDS011;45869;52.698;6.210;2022-08-19T07:12:04;17.88;;;13.55;;
60016;SDS011;45869;52.698;6.210;2022-08-19T07:14:32;17.60;;;13.65;;
60016;SDS011;45869;52.698;6.210;2022-08-19T07:17:00;13.98;;;12.45;;
60016;SDS011;45869;52.698;6.210;2022-08-19T07:19:26;15.50;;;13.13;;
60016;SDS011;45869;52.698;6.210;2022-08-19T07:21:57;16.27;;;12.40;;
60016;SDS011;45869;52.698;6.210;2022-08-19T07:24:26;16.08;;;12.88;;
60016;SDS011;45869;52.698;6.210;2022-08-19T07:26:54;16.05;;;12.65;;
60016;SDS011;45869;52.698;6.210;2022-08-19T07:29:40;15.90;;;11.77;;
60016;SDS011;45869;52.698;6.210;2022-08-19T07:32:09;17.08;;;12.20;;
60016;SDS011;45869;52.698;6.210;2022-08-19T07:34:36;15.00;;;11.90;;
60016;SDS011;45869;52.698;6.210;2022-08-19T07:37:06;15.50;;;11.82;;
60016;SDS011;45869;52.698;6.210;2022-08-19T07:39:33;15.75;;;12.40;;
60016;SDS011;45869;52.698;6.210;2022-08-19T07:42:01;15.23;;;12.20;;
60016;SDS011;45869;52.698;6.210;2022-08-19T07:44:31;20.52;;;13.20;;
60016;SDS011;45869;52.698;6.210;2022-08-19T07:46:58;16.45;;;12.48;;
60016;SDS011;45869;52.698;6.210;2022-08-19T07:49:25;15.90;;;12.40;;
60016;SDS011;45869;52.698;6.210;2022-08-19T07:52:09;12.93;;;11.52;;
60016;SDS011;45869;52.698;6.210;2022-08-19T07:54:36;16.20;;;12.23;;
60016;SDS011;45869;52.698;6.210;2022-08-19T07:57:03;15.07;;;12.93;;
60016;SDS011;45869;52.698;6.210;2022-08-19T07:59:29;16.60;;;12.98;;
60016;SDS011;45869;52.698;6.210;2022-08-19T08:01:56;15.77;;;12.63;;
60016;SDS011;45869;52.698;6.210;2022-08-19T08:04:24;14.00;;;11.43;;
60016;SDS011;45869;52.698;6.210;2022-08-19T08:07:15;14.10;;;12.60;;
60016;SDS011;45869;52.698;6.210;2022-08-19T08:10:20;14.82;;;12.07;;
60016;SDS011;45869;52.698;6.210;2022-08-19T08:12:46;17.17;;;13.13;;
60016;SDS011;45869;52.698;6.210;2022-08-19T08:15:15;16.17;;;13.38;;
60016;SDS011;45869;52.698;6.210;2022-08-19T08:17:42;16.92;;;14.00;;
60016;SDS011;45869;52.698;6.210;2022-08-19T08:20:08;17.65;;;13.35;;
60016;SDS011;45869;52.698;6.210;2022-08-19T08:22:35;16.67;;;14.07;;
60016;SDS011;45869;52.698;6.210;2022-08-19T08:25:21;15.90;;;12.80;;
60016;SDS011;45869;52.698;6.210;2022-08-19T08:27:47;16.50;;;12.90;;
60016;SDS011;45869;52.698;6.210;2022-08-19T08:30:20;16.80;;;13.65;;
60016;SDS011;45869;52.698;6.210;2022-08-19T08:32:47;15.00;;;12.82;;
60016;SDS011;45869;52.698;6.210;2022-08-19T08:35:15;16.60;;;13.05;;
60016;SDS011;45869;52.698;6.210;2022-08-19T08:37:41;15.68;;;12.77;;
60016;SDS011;45869;52.698;6.210;2022-08-19T08:43:30;13.48;;;11.23;;
60016;SDS011;45869;52.698;6.210;2022-08-19T08:45:38;14.43;;;11.90;;
60016;SDS011;45869;52.698;6.210;2022-08-19T08:48:18;14.45;;;11.32;;
60016;SDS011;45869;52.698;6.210;2022-08-19T08:50:46;15.32;;;11.52;;
60016;SDS011;45869;52.698;6.210;2022-08-19T08:53:13;12.35;;;9.95;;
60016;SDS011;45869;52.698;6.210;2022-08-19T08:55:40;13.82;;;10.82;;
60016;SDS011;45869;52.698;6.210;2022-08-19T08:58:09;14.25;;;10.48;;
60016;SDS011;45869;52.698;6.210;2022-08-19T09:00:39;12.73;;;10.80;;
60016;SDS011;45869;52.698;6.210;2022-08-19T09:03:07;14.77;;;11.65;;
60016;SDS011;45869;52.698;6.210;2022-08-19T09:05:40;13.30;;;10.88;;
60016;SDS011;45869;52.698;6.210;2022-08-19T09:08:12;11.60;;;9.23;;
60016;SDS011;45869;52.698;6.210;2022-08-19T09:10:45;10.93;;;9.35;;
60016;SDS011;45869;52.698;6.210;2022-08-19T09:13:20;12.57;;;10.48;;
60016;SDS011;45869;52.698;6.210;2022-08-19T09:15:51;12.57;;;10.38;;
60016;SDS011;45869;52.698;6.210;2022-08-19T09:18:18;15.13;;;9.32;;
60016;SDS011;45869;52.698;6.210;2022-08-19T09:20:44;10.73;;;9.07;;
60016;SDS011;45869;52.698;6.210;2022-08-19T09:23:12;11.35;;;9.65;;
60016;SDS011;45869;52.698;6.210;2022-08-19T09:25:38;12.30;;;8.88;;
60016;SDS011;45869;52.698;6.210;2022-08-19T09:28:05;12.48;;;9.52;;
60016;SDS011;45869;52.698;6.210;2022-08-19T09:30:33;10.30;;;9.20;;
60016;SDS011;45869;52.698;6.210;2022-08-19T09:32:59;11.18;;;8.77;;
60016;SDS011;45869;52.698;6.210;2022-08-19T09:35:27;8.27;;;7.00;;
60016;SDS011;45869;52.698;6.210;2022-08-19T09:37:54;9.82;;;7.25;;
60016;SDS011;45869;52.698;6.210;2022-08-19T09:40:20;12.27;;;8.48;;
60016;SDS011;45869;52.698;6.210;2022-08-19T09:42:47;11.80;;;9.10;;
60016;SDS011;45869;52.698;6.210;2022-08-19T09:45:17;10.05;;;7.60;;
60016;SDS011;45869;52.698;6.210;2022-08-19T09:47:45;9.80;;;7.75;;
60016;SDS011;45869;52.698;6.210;2022-08-19T09:50:11;11.10;;;7.75;;
60016;SDS011;45869;52.698;6.210;2022-08-19T09:52:38;11.05;;;8.27;;
60016;SDS011;45869;52.698;6.210;2022-08-19T09:55:04;16.13;;;8.95;;
60016;SDS011;45869;52.698;6.210;2022-08-19T09:57:33;16.42;;;8.18;;
60016;SDS011;45869;52.698;6.210;2022-08-19T10:00:02;12.65;;;8.32;;
60016;SDS011;45869;52.698;6.210;2022-08-19T10:02:29;10.95;;;8.40;;
60016;SDS011;45869;52.698;6.210;2022-08-19T10:04:55;11.02;;;9.70;;
60016;SDS011;45869;52.698;6.210;2022-08-19T10:07:39;11.18;;;9.95;;
60016;SDS011;45869;52.698;6.210;2022-08-19T10:10:06;16.17;;;10.60;;
60016;SDS011;45869;52.698;6.210;2022-08-19T10:12:33;11.80;;;9.40;;
60016;SDS011;45869;52.698;6.210;2022-08-19T10:15:00;11.52;;;10.30;;
60016;SDS011;45869;52.698;6.210;2022-08-19T10:17:26;12.57;;;10.82;;
60016;SDS011;45869;52.698;6.210;2022-08-19T10:19:52;15.60;;;11.13;;
60016;SDS011;45869;52.698;6.210;2022-08-19T10:22:18;13.25;;;10.95;;
60016;SDS011;45869;52.698;6.210;2022-08-19T10:24:47;15.38;;;10.27;;
60016;SDS011;45869;52.698;6.210;2022-08-19T10:27:14;10.70;;;9.30;;
60016;SDS011;45869;52.698;6.210;2022-08-19T10:29:40;11.35;;;9.73;;
60016;SDS011;45869;52.698;6.210;2022-08-19T10:32:07;11.32;;;9.18;;
60016;SDS011;45869;52.698;6.210;2022-08-19T10:34:34;11.95;;;9.80;;
60016;SDS011;45869;52.698;6.210;2022-08-19T10:37:04;14.65;;;10.57;;
60016;SDS011;45869;52.698;6.210;2022-08-19T10:39:35;11.98;;;8.82;;
60016;SDS011;45869;52.698;6.210;2022-08-19T10:42:05;12.63;;;9.73;;
60016;SDS011;45869;52.698;6.210;2022-08-19T10:44:38;11.70;;;8.85;;
60016;SDS011;45869;52.698;6.210;2022-08-19T10:47:04;12.98;;;9.40;;
60016;SDS011;45869;52.698;6.210;2022-08-19T10:49:30;11.93;;;9.43;;
60016;SDS011;45869;52.698;6.210;2022-08-19T10:51:57;11.75;;;8.20;;
60016;SDS011;45869;52.698;6.210;2022-08-19T10:54:45;11.60;;;7.90;;
60016;SDS011;45869;52.698;6.210;2022-08-19T10:57:30;12.07;;;8.95;;
60016;SDS011;45869;52.698;6.210;2022-08-19T10:59:56;13.70;;;11.27;;
60016;SDS011;45869;52.698;6.210;2022-08-19T11:02:22;11.23;;;9.68;;
60016;SDS011;45869;52.698;6.210;2022-08-19T11:04:49;10.38;;;8.68;;
60016;SDS011;45869;52.698;6.210;2022-08-19T11:07:18;12.35;;;9.85;;
60016;SDS011;45869;52.698;6.210;2022-08-19T11:09:46;16.02;;;10.38;;
60016;SDS011;45869;52.698;6.210;2022-08-19T11:12:12;18.67;;;10.75;;
60016;SDS011;45869;52.698;6.210;2022-08-19T11:14:38;11.38;;;9.93;;
60016;SDS011;45869;52.698;6.210;2022-08-19T11:17:05;12.88;;;10.77;;
60016;SDS011;45869;52.698;6.210;2022-08-19T11:19:31;13.48;;;11.48;;
60016;SDS011;45869;52.698;6.210;2022-08-19T11:21:58;16.42;;;12.20;;
60016;SDS011;45869;52.698;6.210;2022-08-19T11:24:27;13.20;;;11.02;;
60016;SDS011;45869;52.698;6.210;2022-08-19T11:26:54;13.82;;;9.63;;
60016;SDS011;45869;52.698;6.210;2022-08-19T11:29:25;16.83;;;10.40;;
60016;SDS011;45869;52.698;6.210;2022-08-19T11:31:52;12.68;;;9.45;;
60016;SDS011;45869;52.698;6.210;2022-08-19T11:34:21;12.60;;;9.40;;
60016;SDS011;45869;52.698;6.210;2022-08-19T11:36:47;10.32;;;8.77;;
60016;SDS011;45869;52.698;6.210;2022-08-19T11:39:15;12.23;;;9.52;;
60016;SDS011;45869;52.698;6.210;2022-08-19T11:41:41;11.43;;;8.73;;
60016;SDS011;45869;52.698;6.210;2022-08-19T11:44:07;11.27;;;9.73;;
60016;SDS011;45869;52.698;6.210;2022-08-19T11:46:34;14.98;;;11.55;;
60016;SDS011;45869;52.698;6.210;2022-08-19T11:49:00;10.93;;;9.07;;
60016;SDS011;45869;52.698;6.210;2022-08-19T11:51:28;14.25;;;10.90;;
60016;SDS011;45869;52.698;6.210;2022-08-19T11:53:58;10.63;;;9.05;;
60016;SDS011;45869;52.698;6.210;2022-08-19T11:56:25;11.43;;;8.48;;
60016;SDS011;45869;52.698;6.210;2022-08-19T11:58:52;10.38;;;8.10;;
60016;SDS011;45869;52.698;6.210;2022-08-19T12:01:19;11.55;;;8.18;;
60016;SDS011;45869;52.698;6.210;2022-08-19T12:03:47;12.60;;;9.38;;
60016;SDS011;45869;52.698;6.210;2022-08-19T12:06:14;13.20;;;9.57;;
60016;SDS011;45869;52.698;6.210;2022-08-19T12:08:41;11.32;;;8.98;;
60016;SDS011;45869;52.698;6.210;2022-08-19T12:11:08;11.77;;;8.77;;
60016;SDS011;45869;52.698;6.210;2022-08-19T12:13:35;12.18;;;8.85;;
60016;SDS011;45869;52.698;6.210;2022-08-19T12:16:01;11.60;;;8.30;;
60016;SDS011;45869;52.698;6.210;2022-08-19T12:18:32;10.82;;;8.15;;
60016;SDS011;45869;52.698;6.210;2022-08-19T12:20:58;13.32;;;8.68;;
60016;SDS011;45869;52.698;6.210;2022-08-19T12:23:28;10.73;;;8.00;;
60016;SDS011;45869;52.698;6.210;2022-08-19T12:25:57;7.75;;;6.40;;
60016;SDS011;45869;52.698;6.210;2022-08-19T12:28:23;8.30;;;5.70;;
60016;SDS011;45869;52.698;6.210;2022-08-19T12:30:50;11.80;;;8.18;;
60016;SDS011;45869;52.698;6.210;2022-08-19T12:33:17;12.27;;;9.18;;
60016;SDS011;45869;52.698;6.210;2022-08-19T12:35:44;13.15;;;7.97;;
60016;SDS011;45869;52.698;6.210;2022-08-19T12:38:14;10.00;;;7.10;;
60016;SDS011;45869;52.698;6.210;2022-08-19T12:40:41;9.65;;;6.32;;
60016;SDS011;45869;52.698;6.210;2022-08-19T12:43:07;9.95;;;7.50;;
60016;SDS011;45869;52.698;6.210;2022-08-19T12:45:34;11.93;;;7.78;;
60016;SDS011;45869;52.698;6.210;2022-08-19T12:48:00;10.93;;;7.10;;
60016;SDS011;45869;52.698;6.210;2022-08-19T12:50:26;7.18;;;5.85;;
60016;SDS011;45869;52.698;6.210;2022-08-19T12:52:53;8.82;;;6.63;;
60016;SDS011;45869;52.698;6.210;2022-08-19T12:55:19;11.50;;;7.45;;
60016;SDS011;45869;52.698;6.210;2022-08-19T12:57:53;10.63;;;7.20;;
60016;SDS011;45869;52.698;6.210;2022-08-19T13:00:20;11.02;;;7.28;;
60016;SDS011;45869;52.698;6.210;2022-08-19T13:02:47;11.07;;;6.97;;
60016;SDS011;45869;52.698;6.210;2022-08-19T13:05:16;9.88;;;7.20;;
60016;SDS011;45869;52.698;6.210;2022-08-19T13:07:44;11.90;;;7.93;;
60016;SDS011;45869;52.698;6.210;2022-08-19T13:10:12;9.98;;;7.47;;
60016;SDS011;45869;52.698;6.210;2022-08-19T13:12:39;11.82;;;8.20;;
60016;SDS011;45869;52.698;6.210;2022-08-19T13:15:06;9.35;;;6.78;;
60016;SDS011;45869;52.698;6.210;2022-08-19T13:17:33;10.85;;;7.53;;
60016;SDS011;45869;52.698;6.210;2022-08-19T13:19:59;11.30;;;7.57;;
60016;SDS011;45869;52.698;6.210;2022-08-19T13:22:25;8.50;;;6.95;;
60016;SDS011;45869;52.698;6.210;2022-08-19T13:24:52;11.30;;;8.15;;
60016;SDS011;45869;52.698;6.210;2022-08-19T13:27:18;11.88;;;8.38;;
60016;SDS011;45869;52.698;6.210;2022-08-19T13:29:44;12.57;;;7.93;;
60016;SDS011;45869;52.698;6.210;2022-08-19T13:32:29;12.60;;;8.15;;
60016;SDS011;45869;52.698;6.210;2022-08-19T13:35:14;11.50;;;7.93;;
60016;SDS011;45869;52.698;6.210;2022-08-19T13:37:40;11.02;;;8.85;;
60016;SDS011;45869;52.698;6.210;2022-08-19T13:40:07;16.65;;;10.93;;
60016;SDS011;45869;52.698;6.210;2022-08-19T13:42:36;15.85;;;10.25;;
60016;SDS011;45869;52.698;6.210;2022-08-19T13:45:02;13.45;;;8.85;;
60016;SDS011;45869;52.698;6.210;2022-08-19T13:47:29;13.23;;;9.52;;
60016;SDS011;45869;52.698;6.210;2022-08-19T13:49:55;17.38;;;11.55;;
60016;SDS011;45869;52.698;6.210;2022-08-19T13:52:34;15.65;;;9.40;;
60016;SDS011;45869;52.698;6.210;2022-08-19T13:55:00;13.27;;;9.73;;
60016;SDS011;45869;52.698;6.210;2022-08-19T13:57:29;12.20;;;8.80;;
60016;SDS011;45869;52.698;6.210;2022-08-19T13:59:55;12.35;;;9.02;;
60016;SDS011;45869;52.698;6.210;2022-08-19T14:02:21;11.18;;;8.20;;
60016;SDS011;45869;52.698;6.210;2022-08-19T14:04:47;14.40;;;9.77;;
60016;SDS011;45869;52.698;6.210;2022-08-19T14:07:22;14.40;;;9.48;;
60016;SDS011;45869;52.698;6.210;2022-08-19T14:09:51;15.27;;;8.63;;
60016;SDS011;45869;52.698;6.210;2022-08-19T14:12:20;11.85;;;5.75;;
60016;SDS011;45869;52.698;6.210;2022-08-19T14:14:46;7.55;;;5.68;;
60016;SDS011;45869;52.698;6.210;2022-08-19T14:17:12;7.60;;;5.18;;
60016;SDS011;45869;52.698;6.210;2022-08-19T14:19:38;9.48;;;5.75;;
60016;SDS011;45869;52.698;6.210;2022-08-19T14:22:05;14.82;;;5.97;;
60016;SDS011;45869;52.698;6.210;2022-08-19T14:24:31;11.30;;;7.15;;
60016;SDS011;45869;52.698;6.210;2022-08-19T14:26:58;13.38;;;8.57;;
60016;SDS011;45869;52.698;6.210;2022-08-19T14:29:24;10.65;;;7.85;;
60016;SDS011;45869;52.698;6.210;2022-08-19T14:31:52;12.95;;;8.07;;
60016;SDS011;45869;52.698;6.210;2022-08-19T14:34:18;11.73;;;8.00;;
60016;SDS011;45869;52.698;6.210;2022-08-19T14:36:44;12.23;;;8.70;;
60016;SDS011;45869;52.698;6.210;2022-08-19T14:39:10;14.32;;;9.45;;
60016;SDS011;45869;52.698;6.210;2022-08-19T14:41:39;14.88;;;8.20;;
60016;SDS011;45869;52.698;6.210;2022-08-19T14:44:05;14.65;;;8.32;;
60016;SDS011;45869;52.698;6.210;2022-08-19T14:46:31;13.27;;;8.48;;
60016;SDS011;45869;52.698;6.210;2022-08-19T14:48:57;12.88;;;7.47;;
60016;SDS011;45869;52.698;6.210;2022-08-19T14:51:23;10.73;;;7.43;;
60016;SDS011;45869;52.698;6.210;2022-08-19T14:53:53;13.75;;;8.30;;
60016;SDS011;45869;52.698;6.210;2022-08-19T14:56:20;13.38;;;8.23;;